Time;durP1;ratioP1;P1;durP2;ratioP2;P2;SDS_P1;SDS_P2;PMS_P1;PMS_P2;Temp;Humidity;BMP_temperature;BMP_pressure;BME280_temperature;BME280_humidity;BME280_pressure;Samples;Min_cycle;Max_cycle;Signal;HPM_P1;HPM_P2
2022/01/12 00:01:55;;;;;;;;;69.33;53.00;;;;;0.98;100.00;103310.38;5058653;28;44842;-82
2022/01/12 00:04:20;;;;;;;;;70.33;55.33;;;;;1.06;100.00;103298.25;5058791;28;44745;-83
2022/01/12 00:06:46;;;;;;;;;66.33;51.00;;;;;1.13;100.00;103305.34;5058852;28;44739;-82
2022/01/12 00:09:11;;;;;;;;;70.33;52.67;;;;;1.18;100.00;103294.94;5058393;28;45163;-81
2022/01/12 00:11:37;;;;;;;;;64.00;47.67;;;;;1.22;100.00;103294.13;5058395;28;45185;-81
2022/01/12 00:14:04;;;;;;;;;76.67;52.67;;;;;1.27;100.00;103295.94;5059380;28;44776;-81
2022/01/12 00:16:31;;;;;;;;;66.00;50.33;;;;;1.28;100.00;103292.47;5066023;28;44905;-82
2022/01/12 00:18:57;;;;;;;;;64.33;52.33;;;;;1.34;100.00;103289.03;5057972;28;46122;-82
2022/01/12 00:21:22;;;;;;;;;72.33;51.00;;;;;1.34;100.00;103296.00;5058520;28;45334;-82
2022/01/12 00:23:48;;;;;;;;;71.67;50.33;;;;;1.28;100.00;103287.22;5058510;28;44769;-82
2022/01/12 00:26:37;;;;;;;;;68.33;51.33;;;;;1.26;100.00;103288.06;5058000;28;45221;-82
2022/01/12 00:34:30;;;;;;;;;64.00;49.00;;;;;1.13;100.00;103297.50;5058399;28;45215;-81
2022/01/12 00:36:55;;;;;;;;;66.00;45.00;;;;;1.07;100.00;103307.91;5058493;28;44846;-81
2022/01/12 00:39:21;;;;;;;;;67.67;50.67;;;;;0.99;100.00;103309.50;5058224;28;45363;-81
2022/01/12 00:41:47;;;;;;;;;68.00;50.00;;;;;0.97;100.00;103317.34;5058287;28;44868;-80
2022/01/12 00:44:22;;;;;;;;;71.33;47.00;;;;;1.01;100.00;103316.50;5058518;28;44697;-82
2022/01/12 00:46:50;;;;;;;;;71.33;51.33;;;;;1.02;100.00;103306.94;5064452;28;45192;-81
2022/01/12 00:49:15;;;;;;;;;71.00;52.00;;;;;1.06;100.00;103315.69;5060942;28;45251;-80
2022/01/12 00:51:40;;;;;;;;;74.67;53.33;;;;;1.12;100.00;103313.19;5058159;28;44852;-81
2022/01/12 00:54:08;;;;;;;;;71.33;49.67;;;;;1.18;100.00;103314.16;5057775;28;45328;-81
2022/01/12 00:56:35;;;;;;;;;66.67;49.00;;;;;1.22;100.00;103322.94;5057799;28;45288;-82
2022/01/12 00:59:02;;;;;;;;;67.33;49.33;;;;;1.23;100.00;103322.94;5058014;28;45383;-81
2022/01/12 01:01:28;;;;;;;;;69.33;50.67;;;;;1.25;100.00;103322.94;5058351;28;44785;-81
2022/01/12 01:03:54;;;;;;;;;74.00;52.33;;;;;1.22;100.00;103323.81;5058543;28;44825;-81
2022/01/12 01:06:21;;;;;;;;;67.33;51.00;;;;;1.24;100.00;103329.06;5058126;28;45428;-81
2022/01/12 01:08:51;;;;;;;;;66.00;53.00;;;;;1.25;100.00;103331.69;5057967;28;45234;-82
2022/01/12 01:11:20;;;;;;;;;70.33;53.00;;;;;1.13;100.00;103336.75;5057819;28;44840;-81
2022/01/12 01:13:59;;;;;;;;;69.33;51.67;;;;;1.02;100.00;103340.97;5058371;28;44841;-82
2022/01/12 01:16:47;;;;;;;;;72.33;50.67;;;;;0.96;100.00;103341.75;5065760;28;45537;-81
2022/01/12 01:27:28;;;;;;;;;76.67;54.00;;;;;0.80;100.00;103368.53;5057476;28;44818;-81
2022/01/12 01:29:54;;;;;;;;;76.00;54.00;;;;;0.72;100.00;103373.63;5057335;28;45600;-81
2022/01/12 01:32:20;;;;;;;;;79.33;57.33;;;;;0.67;100.00;103372.69;5057288;28;44896;-80
2022/01/12 01:34:48;;;;;;;;;70.00;51.67;;;;;0.72;100.00;103376.25;5057333;28;44735;-82
2022/01/12 01:37:14;;;;;;;;;65.33;49.67;;;;;0.67;100.00;103393.59;5057197;28;45521;-81
2022/01/12 01:39:40;;;;;;;;;71.00;52.33;;;;;0.68;100.00;103384.94;5056684;28;44916;-81
2022/01/12 01:42:41;;;;;;;;;77.33;51.33;;;;;0.74;100.00;103390.25;5057163;28;44967;-82
2022/01/12 01:55:32;;;;;;;;;72.67;54.00;;;;;0.96;100.00;103383.59;5063215;28;44723;-81
2022/01/12 01:57:57;;;;;;;;;61.33;51.00;;;;;1.00;100.00;103388.03;5061257;28;44704;-82
2022/01/12 02:00:25;;;;;;;;;73.33;54.33;;;;;1.04;100.00;103386.34;5057348;28;45465;-81
2022/01/12 02:02:53;;;;;;;;;63.33;50.00;;;;;1.07;100.00;103382.91;5058312;28;45335;-81
2022/01/12 02:05:18;;;;;;;;;78.33;52.33;;;;;1.08;100.00;103387.28;5057510;28;44885;-81
2022/01/12 02:07:44;;;;;;;;;58.00;44.00;;;;;1.11;100.00;103395.16;5056225;28;44862;-82
2022/01/12 02:10:09;;;;;;;;;63.00;46.00;;;;;1.13;100.00;103396.09;5057284;28;45165;-81
2022/01/12 02:12:35;;;;;;;;;69.33;51.33;;;;;1.15;100.00;103387.38;5056991;28;44804;-81
2022/01/12 02:15:03;;;;;;;;;67.00;49.67;;;;;1.15;100.00;103382.16;5055697;28;45389;-81
2022/01/12 02:17:37;;;;;;;;;70.67;50.67;;;;;1.16;100.00;103378.72;5056881;28;45513;-81
2022/01/12 02:36:33;;;;;;;;;67.33;51.67;;;;;1.15;100.00;103386.50;5075138;28;45503;-80
2022/01/12 02:41:44;;;;;;;;;64.67;49.33;;;;;1.21;100.00;103368.28;5054243;28;45042;-82
2022/01/12 02:54:46;;;;;;;;;72.33;52.33;;;;;1.32;100.00;103343.13;5053852;28;44896;-81
2022/01/12 02:57:11;;;;;;;;;65.33;50.00;;;;;1.33;100.00;103334.41;5053815;28;44820;-81
2022/01/12 02:59:39;;;;;;;;;78.67;54.33;;;;;1.34;100.00;103340.53;5036975;28;45117;-83
2022/01/12 03:02:20;;;;;;;;;73.33;51.33;;;;;1.35;100.00;103332.69;5054593;28;45228;-81
2022/01/12 03:07:37;;;;;;;;;70.67;51.67;;;;;1.42;100.00;103331.91;5056237;28;44726;-82
2022/01/12 03:10:04;;;;;;;;;69.33;50.00;;;;;1.40;100.00;103333.66;5057167;28;45329;-81
2022/01/12 03:12:30;;;;;;;;;72.00;53.67;;;;;1.40;100.00;103343.22;5062116;28;45129;-82
2022/01/12 03:14:55;;;;;;;;;56.67;46.67;;;;;1.39;100.00;103351.94;5057661;28;44779;-82
2022/01/12 03:17:21;;;;;;;;;63.33;48.67;;;;;1.41;100.00;103355.47;5056003;28;44760;-82
2022/01/12 03:19:47;;;;;;;;;67.33;51.67;;;;;1.42;100.00;103362.47;5055898;28;44881;-82
2022/01/12 03:22:12;;;;;;;;;69.67;50.33;;;;;1.42;100.00;103363.34;5058526;28;45144;-81
2022/01/12 03:24:38;;;;;;;;;57.67;43.67;;;;;1.44;100.00;103377.31;5059700;28;44737;-80
2022/01/12 03:27:06;;;;;;;;;71.00;49.00;;;;;1.45;100.00;103375.59;5059926;28;44896;-81
2022/01/12 03:29:31;;;;;;;;;65.67;48.33;;;;;1.46;100.00;103375.63;5060418;28;44921;-81
2022/01/12 03:31:58;;;;;;;;;69.67;50.67;;;;;1.47;100.00;103366.91;5061158;28;44999;-80
2022/01/12 03:34:30;;;;;;;;;71.00;50.00;;;;;1.45;100.00;103376.50;5063493;28;44871;-81
2022/01/12 03:37:18;;;;;;;;;62.00;43.33;;;;;1.36;100.00;103372.88;5063581;28;44732;-82
2022/01/12 03:39:43;;;;;;;;;66.00;50.33;;;;;1.37;100.00;103377.25;5060783;28;45295;-81
2022/01/12 03:42:09;;;;;;;;;62.00;50.00;;;;;1.41;100.00;103377.31;5059304;28;45210;-81
2022/01/12 03:44:35;;;;;;;;;73.00;50.00;;;;;1.44;100.00;103382.56;5059057;28;44894;-81
2022/01/12 03:47:01;;;;;;;;;62.33;45.33;;;;;1.44;100.00;103385.19;5058397;28;45342;-79
2022/01/12 03:49:27;;;;;;;;;62.00;47.33;;;;;1.44;100.00;103385.19;5059975;28;44895;-82
2022/01/12 03:51:53;;;;;;;;;68.33;50.00;;;;;1.43;100.00;103383.44;5063343;28;46923;-81
2022/01/12 03:54:19;;;;;;;;;56.33;42.67;;;;;1.41;100.00;103369.44;5063336;28;44729;-82
2022/01/12 03:56:45;;;;;;;;;67.67;46.33;;;;;1.44;100.00;103371.22;5059236;28;44792;-82
2022/01/12 03:59:10;;;;;;;;;61.33;48.67;;;;;1.41;100.00;103386.91;5059034;28;44761;-81
2022/01/12 04:01:36;;;;;;;;;62.67;45.67;;;;;1.38;100.00;103385.09;5058449;28;45132;-80
2022/01/12 04:04:07;;;;;;;;;56.67;43.00;;;;;1.32;100.00;103398.13;5058793;28;44764;-81
2022/01/12 04:09:18;;;;;;;;;63.67;50.67;;;;;1.25;100.00;103407.59;5057760;28;44813;-81
2022/01/12 04:11:44;;;;;;;;;61.67;48.33;;;;;1.18;100.00;103420.59;5058628;28;45001;-82
2022/01/12 04:14:10;;;;;;;;;64.67;49.33;;;;;1.11;100.00;103410.88;5058676;28;45413;-81
2022/01/12 04:16:37;;;;;;;;;69.33;51.33;;;;;1.05;100.00;103419.53;5058753;28;44888;-80
2022/01/12 04:19:03;;;;;;;;;65.00;48.00;;;;;0.92;100.00;103433.25;5056903;28;44851;-81
2022/01/12 04:21:30;;;;;;;;;67.67;50.33;;;;;0.90;100.00;103434.97;5058367;28;45216;-81
2022/01/12 04:23:57;;;;;;;;;72.00;50.00;;;;;0.84;100.00;103427.91;5058633;28;44814;-81
2022/01/12 04:26:23;;;;;;;;;70.00;49.00;;;;;0.84;100.00;103442.75;5058545;28;45247;-81
2022/01/12 04:28:49;;;;;;;;;71.00;50.67;;;;;0.85;100.00;103450.59;5058824;28;44902;-81
2022/01/12 04:31:14;;;;;;;;;73.67;53.33;;;;;0.80;100.00;103435.69;5058034;28;45234;-81
2022/01/12 04:33:41;;;;;;;;;73.67;48.00;;;;;0.85;100.00;103441.88;5065594;28;44808;-82
2022/01/12 04:36:09;;;;;;;;;71.00;51.67;;;;;0.87;100.00;103443.69;5064476;28;44722;-81
2022/01/12 04:38:37;;;;;;;;;76.33;53.00;;;;;0.92;100.00;103452.47;5058903;28;44824;-82
2022/01/12 04:41:08;;;;;;;;;61.67;49.67;;;;;0.89;100.00;103452.41;5058426;28;45385;-82
2022/01/12 04:43:36;;;;;;;;;72.00;52.67;;;;;0.91;100.00;103448.09;5058763;28;44837;-82
2022/01/12 04:48:36;;;;;;;;;67.67;50.33;;;;;0.98;100.00;103468.28;5060110;28;44796;-81
2022/01/12 04:51:02;;;;;;;;;58.67;46.00;;;;;0.94;100.00;103466.47;5059656;28;45363;-81
2022/01/12 04:53:29;;;;;;;;;57.33;41.00;;;;;0.97;100.00;103457.81;5058701;28;44745;-81
2022/01/12 04:55:54;;;;;;;;;57.67;41.67;;;;;0.99;100.00;103450.84;5056807;28;44798;-81
2022/01/12 04:58:20;;;;;;;;;61.67;44.67;;;;;0.99;100.00;103458.69;5058347;28;44865;-82
2022/01/12 05:00:48;;;;;;;;;56.33;42.33;;;;;1.00;100.00;103449.97;5057663;28;44913;-81
2022/01/12 05:13:53;;;;;;;;;62.67;46.67;;;;;1.12;100.00;103476.38;5062999;28;44720;-84
2022/01/12 05:16:20;;;;;;;;;62.67;46.33;;;;;1.13;100.00;103467.66;5065576;28;44860;-84
2022/01/12 05:18:47;;;;;;;;;52.67;36.67;;;;;1.17;100.00;103474.72;5061981;28;45367;-85
2022/01/12 05:21:15;;;;;;;;;59.33;45.00;;;;;1.21;100.00;103478.22;5058509;28;45228;-84
2022/01/12 05:23:40;;;;;;;;;59.33;42.00;;;;;1.25;100.00;103469.56;5064689;28;44853;-84
2022/01/12 05:26:07;;;;;;;;;63.67;46.33;;;;;1.28;100.00;103475.75;5073043;28;44772;-84
2022/01/12 05:28:34;;;;;;;;;67.33;49.00;;;;;1.31;100.00;103466.19;5079190;28;45426;-83
2022/01/12 05:31:01;;;;;;;;;50.00;42.33;;;;;1.36;100.00;103457.56;5081686;28;45270;-82
2022/01/12 05:33:27;;;;;;;;;61.67;42.33;;;;;1.41;100.00;103452.38;5079860;28;44734;-83
2022/01/12 05:35:56;;;;;;;;;63.67;45.00;;;;;1.44;100.00;103447.16;5063490;28;44708;-84
2022/01/12 05:38:23;;;;;;;;;67.33;45.67;;;;;1.47;100.00;103448.09;5066214;28;44759;-81
2022/01/12 05:40:52;;;;;;;;;54.67;42.00;;;;;1.52;100.00;103445.56;5078057;27;45429;-83
2022/01/12 05:43:24;;;;;;;;;64.67;47.33;;;;;1.55;100.00;103450.84;5076622;28;44917;-81
2022/01/12 05:45:51;;;;;;;;;61.67;46.00;;;;;1.56;100.00;103442.13;5076897;28;44828;-81
2022/01/12 05:50:42;;;;;;;;;59.67;44.00;;;;;1.58;100.00;103450.00;5078689;28;45227;-81
2022/01/12 05:53:08;;;;;;;;;67.33;45.67;;;;;1.59;100.00;103446.50;5087352;27;45154;-81
2022/01/12 05:55:34;;;;;;;;;64.67;43.00;;;;;1.61;100.00;103450.91;5085264;27;44836;-84
2022/01/12 05:57:59;;;;;;;;;62.33;45.00;;;;;1.63;100.00;103443.06;5081738;27;45376;-84
2022/01/12 06:00:27;;;;;;;;;54.67;45.67;;;;;1.63;100.00;103446.56;5080524;27;45002;-84
2022/01/12 06:02:53;;;;;;;;;63.67;46.67;;;;;1.66;100.00;103454.47;5078625;27;45402;-85
2022/01/12 06:05:20;;;;;;;;;70.67;51.00;;;;;1.69;100.00;103471.97;5076207;27;44778;-84
2022/01/12 06:07:50;;;;;;;;;67.33;51.00;;;;;1.68;100.00;103476.34;5077397;27;44912;-82
2022/01/12 06:10:17;;;;;;;;;51.67;45.00;;;;;1.70;100.00;103481.63;5058662;28;45623;-85
2022/01/12 06:12:42;;;;;;;;;64.67;48.33;;;;;1.72;100.00;103470.28;5077233;27;44792;-83
2022/01/12 06:15:09;;;;;;;;;66.00;50.00;;;;;1.74;100.00;103471.19;5077271;27;44822;-85
2022/01/12 06:17:34;;;;;;;;;70.33;49.33;;;;;1.70;100.00;103464.16;5077432;28;44830;-84
2022/01/12 06:20:01;;;;;;;;;60.33;43.67;;;;;1.70;100.00;103464.16;5077892;27;44940;-81
2022/01/12 06:22:26;;;;;;;;;68.00;47.33;;;;;1.68;100.00;103459.75;5077035;27;45216;-83
2022/01/12 06:24:52;;;;;;;;;72.00;48.00;;;;;1.68;100.00;103459.75;5076839;27;45343;-83
2022/01/12 06:27:20;;;;;;;;;70.00;51.00;;;;;1.71;100.00;103460.66;5077231;27;45426;-82
2022/01/12 06:32:21;;;;;;;;;62.67;47.00;;;;;1.74;100.00;103455.47;5077316;28;44868;-82
2022/01/12 06:34:46;;;;;;;;;65.00;48.00;;;;;1.70;100.00;103456.28;5075559;28;45327;-84
2022/01/12 06:37:12;;;;;;;;;65.00;51.00;;;;;1.68;100.00;103465.84;5077578;27;44869;-82
2022/01/12 06:39:37;;;;;;;;;63.00;47.00;;;;;1.63;100.00;103469.28;5061844;27;45350;-82
2022/01/12 06:42:03;;;;;;;;;66.67;49.67;;;;;1.58;100.00;103477.06;5063728;28;45304;-83
2022/01/12 06:44:29;;;;;;;;;54.00;42.33;;;;;1.56;100.00;103470.06;5064697;28;44686;-83
2022/01/12 06:46:56;;;;;;;;;68.33;50.67;;;;;1.52;100.00;103475.25;5057218;28;45150;-84
2022/01/12 06:49:22;;;;;;;;;56.33;46.00;;;;;1.54;100.00;103485.72;5059847;28;45235;-83
2022/01/12 06:51:49;;;;;;;;;68.00;52.00;;;;;1.51;100.00;103475.22;5060978;28;44924;-83
2022/01/12 06:54:16;;;;;;;;;66.33;49.67;;;;;1.52;100.00;103488.34;5059354;28;44761;-83
2022/01/12 06:56:42;;;;;;;;;70.67;49.00;;;;;1.52;100.00;103483.09;5058150;28;44861;-83
2022/01/12 06:59:08;;;;;;;;;66.00;44.67;;;;;1.53;100.00;103486.59;5056831;28;45026;-84
2022/01/12 07:01:34;;;;;;;;;66.00;47.00;;;;;1.53;100.00;103484.84;5056282;28;44849;-83
2022/01/12 07:03:59;;;;;;;;;63.50;46.00;;;;;1.53;100.00;103489.22;5055898;28;45043;-83
2022/01/12 07:06:25;;;;;;;;;65.33;47.00;;;;;1.52;100.00;103485.72;5056003;28;44840;-84
2022/01/12 07:08:50;;;;;;;;;62.00;46.33;;;;;1.53;100.00;103481.34;5054901;28;45446;-84
2022/01/12 07:11:16;;;;;;;;;59.33;48.00;;;;;1.54;100.00;103481.38;5055690;28;45199;-83
2022/01/12 07:13:42;;;;;;;;;65.67;47.67;;;;;1.57;100.00;103483.16;5054269;28;44926;-83
2022/01/12 07:16:08;;;;;;;;;55.67;37.33;;;;;1.56;100.00;103478.78;5055896;28;44775;-83
2022/01/12 07:18:33;;;;;;;;;58.67;45.33;;;;;1.54;100.00;103470.91;5054511;28;46828;-84
2022/01/12 07:20:59;;;;;;;;;50.67;44.00;;;;;1.53;100.00;103470.88;5055829;28;45534;-84
2022/01/12 07:23:26;;;;;;;;;57.33;42.67;;;;;1.51;100.00;103464.75;5054789;28;45418;-84
2022/01/12 07:25:51;;;;;;;;;64.00;49.33;;;;;1.51;100.00;103464.75;5056401;28;45360;-83
2022/01/12 07:28:19;;;;;;;;;64.33;47.33;;;;;1.51;100.00;103462.13;5057089;28;45359;-83
2022/01/12 07:30:44;;;;;;;;;65.33;47.67;;;;;1.56;100.00;103467.44;5060247;28;44868;-82
2022/01/12 07:33:10;;;;;;;;;60.33;46.33;;;;;1.55;100.00;103474.41;5061057;28;44788;-84
2022/01/12 07:35:36;;;;;;;;;66.00;49.67;;;;;1.46;100.00;103480.41;5056059;28;44877;-84
2022/01/12 07:38:02;;;;;;;;;62.00;46.67;;;;;1.44;100.00;103491.69;5055428;28;45274;-84
2022/01/12 07:40:28;;;;;;;;;62.67;45.67;;;;;1.43;100.00;103493.44;5056405;28;45252;-83
2022/01/12 07:42:53;;;;;;;;;58.33;45.67;;;;;1.45;100.00;103499.59;5056042;28;44654;-85
2022/01/12 07:45:19;;;;;;;;;62.33;48.00;;;;;1.49;100.00;103505.75;5057302;28;45557;-90
2022/01/12 07:47:44;;;;;;;;;65.67;46.33;;;;;1.52;100.00;103514.53;5064087;28;46789;-88
2022/01/12 07:50:10;;;;;;;;;67.33;51.67;;;;;1.54;100.00;103520.66;5057232;28;45322;-85
2022/01/12 07:52:36;;;;;;;;;63.00;46.67;;;;;1.58;100.00;103524.22;5059615;28;44682;-88
2022/01/12 07:55:02;;;;;;;;;65.67;46.00;;;;;1.58;100.00;103516.38;5059916;28;45732;-85
2022/01/12 07:57:28;;;;;;;;;69.33;50.67;;;;;1.62;100.00;103530.41;5060294;28;45423;-86
2022/01/12 07:59:53;;;;;;;;;62.00;48.33;;;;;1.62;100.00;103533.03;5058484;28;44828;-85
2022/01/12 08:02:19;;;;;;;;;64.67;48.00;;;;;1.63;100.00;103533.03;5059894;28;44936;-86
2022/01/12 08:04:44;;;;;;;;;57.00;46.00;;;;;1.66;100.00;103535.72;5058752;28;44800;-85
2022/01/12 08:07:10;;;;;;;;;66.67;49.33;;;;;1.73;100.00;103529.69;5061342;28;45003;-85
2022/01/12 08:09:41;;;;;;;;;64.67;47.67;;;;;1.80;100.00;103531.56;5064468;28;44823;-85
2022/01/12 08:12:08;;;;;;;;;65.33;44.33;;;;;1.85;100.00;103528.13;5073700;28;44809;-87
2022/01/12 08:14:33;;;;;;;;;65.00;46.00;;;;;1.92;100.00;103537.81;5069176;28;44800;-86
2022/01/12 08:16:59;;;;;;;;;55.33;43.33;;;;;1.95;100.00;103548.38;5070060;28;45119;-86
2022/01/12 08:19:25;;;;;;;;;67.00;46.00;;;;;1.97;100.00;103552.75;5062448;28;44773;-86
2022/01/12 08:21:51;;;;;;;;;70.33;53.33;;;;;1.90;100.00;103556.16;5060422;28;45376;-86
2022/01/12 08:24:18;;;;;;;;;70.00;49.67;;;;;1.78;100.00;103558.59;5061694;28;44706;-86
2022/01/12 08:26:43;;;;;;;;;77.33;53.33;;;;;1.71;100.00;103564.59;5059123;28;45327;-86
2022/01/12 08:29:11;;;;;;;;;65.00;50.67;;;;;1.61;100.00;103575.81;5060919;28;44857;-86
2022/01/12 08:31:36;;;;;;;;;64.33;51.33;;;;;1.59;100.00;103580.13;5060744;28;45382;-86
2022/01/12 08:34:03;;;;;;;;;67.00;52.67;;;;;1.56;100.00;103580.97;5060197;28;45326;-84
2022/01/12 08:36:29;;;;;;;;;81.33;52.67;;;;;1.60;100.00;103579.28;5060614;28;44977;-84
2022/01/12 08:38:55;;;;;;;;;69.67;51.67;;;;;1.61;100.00;103584.53;5060105;28;44776;-86
2022/01/12 08:41:21;;;;;;;;;72.33;53.33;;;;;1.63;100.00;103585.44;5059701;28;44766;-86
2022/01/12 08:43:47;;;;;;;;;73.67;53.67;;;;;1.67;100.00;103596.84;5060588;28;44771;-85
2022/01/12 08:46:14;;;;;;;;;64.67;52.00;;;;;1.69;100.00;103592.50;5060036;28;45371;-85
2022/01/12 08:48:39;;;;;;;;;74.00;54.00;;;;;1.76;100.00;103600.50;5066694;28;44829;-85
2022/01/12 08:51:05;;;;;;;;;72.67;53.67;;;;;1.81;100.00;103608.44;5066212;28;45331;-84
2022/01/12 08:53:30;;;;;;;;;62.00;48.33;;;;;1.84;100.00;103604.97;5073521;27;44792;-84
2022/01/12 08:55:55;;;;;;;;;66.00;50.33;;;;;1.84;100.00;103600.63;5071864;27;45491;-85
2022/01/12 08:58:21;;;;;;;;;71.67;52.67;;;;;1.90;100.00;103600.72;5070352;28;44690;-84
2022/01/12 09:00:47;;;;;;;;;72.33;50.00;;;;;1.95;100.00;103593.81;5072300;28;44865;-84
2022/01/12 09:03:12;;;;;;;;;69.00;53.33;;;;;2.02;100.00;103603.50;5067513;27;45379;-84
2022/01/12 09:05:41;;;;;;;;;68.00;50.67;;;;;2.06;100.00;103601.81;5072705;28;45835;-84
2022/01/12 09:08:07;;;;;;;;;68.33;53.33;;;;;2.13;100.00;103615.88;5077329;27;44893;-83
2022/01/12 09:10:33;;;;;;;;;71.00;51.33;;;;;2.16;100.00;103615.94;5069236;28;44883;-84
2022/01/12 09:12:59;;;;;;;;;66.67;49.33;;;;;2.21;100.00;103614.25;5056402;28;45311;-84
2022/01/12 09:15:25;;;;;;;;;72.33;55.33;;;;;2.27;100.00;103620.50;5080532;28;46632;-84
2022/01/12 09:17:51;;;;;;;;;76.67;50.67;;;;;2.33;100.00;103622.31;5087904;27;44760;-84
2022/01/12 09:20:17;;;;;;;;;64.33;50.33;;;;;2.48;100.00;103632.16;5079149;27;44812;-84
2022/01/12 09:22:43;;;;;;;;;65.67;51.00;;;;;2.54;100.00;103629.59;5078242;27;45291;-83
2022/01/12 09:25:10;;;;;;;;;77.00;46.00;;;;;2.66;100.00;103636.72;5078157;27;45432;-85
2022/01/12 09:27:37;;;;;;;;;73.33;51.00;;;;;2.78;100.00;103639.53;5075736;28;44771;-84
2022/01/12 09:30:05;;;;;;;;;80.00;55.33;;;;;2.90;100.00;103655.44;5061779;28;45166;-83
2022/01/12 09:32:30;;;;;;;;;66.00;45.33;;;;;3.05;100.00;103657.34;5061991;28;44733;-85
2022/01/12 09:34:56;;;;;;;;;70.67;50.67;;;;;3.22;100.00;103655.78;5078121;27;45407;-83
2022/01/12 09:37:21;;;;;;;;;69.67;50.00;;;;;3.40;100.00;103664.72;5094074;27;44768;-86
2022/01/12 09:39:47;;;;;;;;;66.33;49.67;;;;;3.54;100.00;103669.25;5072086;27;45299;-87
2022/01/12 09:42:12;;;;;;;;;67.33;51.67;;;;;3.68;100.00;103679.03;5077804;27;44906;-87
2022/01/12 09:44:43;;;;;;;;;68.67;52.00;;;;;3.76;100.00;103674.69;5081644;27;45067;-86
2022/01/12 09:47:08;;;;;;;;;60.67;47.33;;;;;3.85;100.00;103675.66;5068625;28;44990;-86
2022/01/12 09:49:34;;;;;;;;;66.67;53.33;;;;;3.93;100.00;103673.09;5076303;27;44730;-85
2022/01/12 09:52:00;;;;;;;;;67.33;52.00;;;;;4.02;100.00;103678.44;5082810;28;44883;-86
2022/01/12 09:54:27;;;;;;;;;74.00;56.00;;;;;4.11;100.00;103683.78;5060257;28;45096;-87
2022/01/12 09:56:52;;;;;;;;;72.00;51.33;;;;;4.19;100.00;103681.19;5065037;28;45428;-86
2022/01/12 09:59:21;;;;;;;;;66.33;50.33;;;;;4.28;100.00;103673.34;5070074;27;44826;-86
2022/01/12 10:01:47;;;;;;;;;76.00;58.33;;;;;4.36;100.00;103687.44;5066886;28;44873;-87
2022/01/12 10:04:16;;;;;;;;;73.00;53.00;;;;;4.44;100.00;103682.22;5078554;28;45147;-86
2022/01/12 10:06:47;;;;;;;;;60.67;48.33;;;;;4.51;100.00;103675.25;5078053;28;45342;-87
2022/01/12 10:09:14;;;;;;;;;71.33;52.00;;;;;4.55;100.00;103663.88;5068704;27;44713;-87
2022/01/12 10:11:50;;;;;;;;;68.67;53.00;;;;;4.60;100.00;103662.16;5060685;28;44995;-86
2022/01/12 10:14:16;;;;;;;;;71.33;57.33;;;;;4.67;100.00;103663.03;5056437;28;47038;-87
2022/01/12 10:16:54;;;;;;;;;73.67;55.00;;;;;4.73;100.00;103666.56;5073174;27;44825;-85
2022/01/12 10:19:31;;;;;;;;;69.00;54.67;;;;;4.81;100.00;103671.88;5068456;27;44773;-87
2022/01/12 10:21:58;;;;;;;;;68.00;52.00;;;;;4.89;100.00;103675.44;5058451;28;44691;-89
2022/01/12 10:24:26;;;;;;;;;66.00;48.67;;;;;4.94;100.00;103665.81;5061124;28;45059;-85
2022/01/12 10:26:52;;;;;;;;;68.33;50.00;;;;;5.00;100.00;103668.44;5069280;28;45320;-85
2022/01/12 10:29:21;;;;;;;;;64.33;50.33;;;;;5.07;100.00;103661.44;5078658;28;44835;-85
2022/01/12 10:31:55;;;;;;;;;68.67;51.33;;;;;5.16;100.00;103656.19;5062895;28;45217;-86
2022/01/12 10:34:43;;;;;;;;;61.67;48.67;;;;;5.24;100.00;103664.13;5062439;28;45298;-84
2022/01/12 10:37:22;;;;;;;;;61.33;46.33;;;;;5.27;100.00;103661.50;5076720;28;45312;-85
2022/01/12 10:39:49;;;;;;;;;66.00;51.00;;;;;5.29;100.00;103654.47;5064332;28;44848;-87
2022/01/12 10:42:18;;;;;;;;;62.33;48.33;;;;;5.36;100.00;103649.19;5062602;27;45390;-85
2022/01/12 10:44:48;;;;;;;;;68.00;52.33;;;;;5.43;100.00;103662.41;5074820;28;45405;-84
2022/01/12 10:47:16;;;;;;;;;66.00;50.67;;;;;5.52;100.00;103665.06;5061722;27;45382;-86
2022/01/12 10:49:53;;;;;;;;;67.00;51.00;;;;;5.56;100.00;103657.16;5070344;28;45267;-86
2022/01/12 10:52:20;;;;;;;;;66.33;50.33;;;;;5.63;100.00;103658.91;5076760;27;45310;-86
2022/01/12 10:54:51;;;;;;;;;72.33;53.00;;;;;5.64;100.00;103658.03;5063567;28;45242;-86
2022/01/12 10:57:26;;;;;;;;;65.00;48.67;;;;;5.64;100.00;103658.03;5066976;28;44811;-86
2022/01/12 11:00:10;;;;;;;;;61.00;43.67;;;;;5.72;100.00;103655.41;5082818;27;44839;-86
2022/01/12 11:02:38;;;;;;;;;69.33;52.33;;;;;5.70;100.00;103651.88;5065235;27;44933;-86
2022/01/12 11:05:05;;;;;;;;;71.33;52.00;;;;;5.75;100.00;103652.75;5082258;27;45239;-86
2022/01/12 11:07:32;;;;;;;;;66.67;49.33;;;;;5.83;100.00;103668.59;5079724;28;44883;-86
2022/01/12 11:10:01;;;;;;;;;72.00;53.00;;;;;5.87;100.00;103665.09;5080650;28;44748;-87
2022/01/12 11:12:27;;;;;;;;;77.00;55.33;;;;;5.90;100.00;103665.09;5080297;27;44851;-86
2022/01/12 11:14:53;;;;;;;;;66.00;51.00;;;;;5.93;100.00;103665.09;5070992;28;45220;-86
2022/01/12 11:17:19;;;;;;;;;71.00;52.33;;;;;5.99;100.00;103662.47;5086874;27;44704;-86
2022/01/12 11:19:50;;;;;;;;;62.67;50.00;;;;;5.99;100.00;103667.72;5081490;28;44744;-83
2022/01/12 11:22:57;;;;;;;;;66.00;52.33;;;;;5.96;100.00;103667.75;5062733;28;45291;-86
2022/01/12 11:25:33;;;;;;;;;67.67;51.33;;;;;6.01;100.00;103662.47;5076648;28;45159;-83
2022/01/12 11:28:10;;;;;;;;;75.67;54.33;;;;;6.02;100.00;103657.19;5070225;28;44752;-83
2022/01/12 11:30:42;;;;;;;;;69.00;52.33;;;;;6.05;100.00;103653.69;5059605;28;44895;-86
2022/01/12 11:33:11;;;;;;;;;70.33;52.00;;;;;6.09;100.00;103655.41;5068315;28;45517;-85
2022/01/12 11:35:44;;;;;;;;;69.67;54.00;;;;;6.11;100.00;103651.91;5069267;27;45278;-85
2022/01/12 11:38:24;;;;;;;;;73.33;54.33;;;;;6.17;100.00;103656.28;5077521;28;44741;-86
2022/01/12 11:40:52;;;;;;;;;71.00;54.67;;;;;6.26;100.00;103653.63;5059603;28;45343;-85
2022/01/12 11:43:29;;;;;;;;;70.00;53.67;;;;;6.26;100.00;103655.41;5060850;28;44714;-85
2022/01/12 11:46:12;;;;;;;;;74.00;55.33;;;;;6.31;100.00;103640.44;5071847;27;45519;-84
2022/01/12 11:48:40;;;;;;;;;69.00;52.67;;;;;6.40;100.00;103641.28;5077083;28;44971;-86
2022/01/12 11:51:07;;;;;;;;;69.67;52.33;;;;;6.51;100.00;103645.66;5065538;28;44804;-84
2022/01/12 11:53:45;;;;;;;;;73.33;54.00;;;;;6.55;100.00;103640.34;5069766;27;44847;-84
2022/01/12 11:56:13;;;;;;;;;63.33;47.00;;;;;6.60;100.00;103635.06;5063295;28;45007;-84
2022/01/12 11:59:05;;;;;;;;;71.67;52.67;;;;;6.60;100.00;103629.78;5058481;28;45242;-85
2022/01/12 12:02:07;;;;;;;;;75.00;55.00;;;;;6.60;100.00;103630.66;5065769;27;45166;-84
2022/01/12 12:04:33;;;;;;;;;68.00;52.33;;;;;6.60;100.00;103620.09;5018202;28;45014;-85
2022/01/12 12:07:14;;;;;;;;;65.00;51.33;;;;;6.66;100.00;103622.69;5019345;28;45070;-84
2022/01/12 12:09:41;;;;;;;;;70.33;49.67;;;;;6.76;100.00;103612.97;5011898;28;44909;-84
2022/01/12 12:12:18;;;;;;;;;70.67;52.67;;;;;6.82;100.00;103625.28;5033833;28;44862;-84
2022/01/12 12:14:47;;;;;;;;;70.33;53.00;;;;;6.86;100.00;103627.88;5042338;28;44794;-84
2022/01/12 12:17:14;;;;;;;;;68.67;54.67;;;;;6.80;100.00;103625.28;5031514;28;45393;-84
2022/01/12 12:19:40;;;;;;;;;78.67;57.33;;;;;6.53;100.00;103628.94;5016436;28;44909;-84
2022/01/12 12:22:15;;;;;;;;;84.67;62.00;;;;;6.41;100.00;103632.47;5030025;28;45374;-84
2022/01/12 12:24:42;;;;;;;;;71.00;54.67;;;;;6.32;100.00;103618.41;5016092;28;45088;-84
2022/01/12 12:27:10;;;;;;;;;85.67;62.67;;;;;6.27;100.00;103617.56;5011652;28;46779;-84
2022/01/12 12:29:36;;;;;;;;;75.33;57.00;;;;;6.23;100.00;103607.88;5016158;28;44803;-84
2022/01/12 12:32:02;;;;;;;;;67.33;49.67;;;;;6.27;100.00;103615.78;5017122;28;44822;-84